WetterOnline ( https://www.wetteronline.de )

Wetter aktuell Bad Rappenau

Aktuelles Wetter: Öhringen (277m)

6-stündlich | Neueste Meldungen
Ortszeit Temperatur Wetter
Fr, 18.10. 14:00 18.6° C wolkig
Fr, 18.10. 8:00 13.2° C bewölkt
Fr, 18.10. 2:00 14.5° C wolkig
Do, 17.10. 20:00 15.1° C leichter Regen
Do, 17.10. 14:00 17.6° C bedeckt
Do, 17.10. 8:00 12.9° C bedeckt
Do, 17.10. 2:00 12.1° C wolkig
Mi, 16.10. 20:00 12.7° C wolkenlos
Ortszeit Temperatur Wetter
Fr, 18.10. 15:30 13.1° C bewölkt
Fr, 18.10. 15:20 13.1° C bewölkt
Fr, 18.10. 15:10 13.1° C bedeckt
Fr, 18.10. 15:00 12.8° C leichter Regen
Fr, 18.10. 14:50 12.8° C leichter Regen
Fr, 18.10. 14:40 12.6° C leichter Regen
Fr, 18.10. 14:30 12.6° C Regen
Fr, 18.10. 14:00 18.6° C wolkig
Fr, 18.10. 13:30 17.7° C bedeckt
Fr, 18.10. 13:00 17.2° C bewölkt
Fr, 18.10. 12:30 17.4° C bedeckt
Ortszeit Relative Feuchte Sichtweite
Fr, 18.10. 14:00 63% >70 km
Fr, 18.10. 8:00 93% 50 km
Fr, 18.10. 2:00 85% 55 km
Do, 17.10. 20:00 84% 18 km
Do, 17.10. 14:00 61% 65 km
Do, 17.10. 8:00 70% 50 km
Do, 17.10. 2:00 69% 65 km
Mi, 16.10. 20:00 80% 55 km
Ortszeit Relative Feuchte Sichtweite
Fr, 18.10. 15:30 94% 50 km
Fr, 18.10. 15:20 94% -
Fr, 18.10. 15:10 94% -
Fr, 18.10. 15:00 93% 25 km
Fr, 18.10. 14:50 93% -
Fr, 18.10. 14:40 91% -
Fr, 18.10. 14:30 91% 6 km
Fr, 18.10. 14:00 63% >70 km
Fr, 18.10. 13:30 68% 65 km
Fr, 18.10. 13:00 71% 55 km
Fr, 18.10. 12:30 70% 50 km
Ortszeit Niederschlagsmenge Niederschlagsart
Fr, 18.10. 14:00 0.0 l/m2 in 6 Std. -
Fr, 18.10. 8:00 6 l/m2 in 12 Std. Regen
Fr, 18.10. 2:00 3 l/m2 in 6 Std. Regen
Do, 17.10. 20:00 0.4 l/m2 in 12 Std. Regen
Do, 17.10. 14:00 0.1 l/m2 in 6 Std. Regen
Do, 17.10. 8:00 0.1 l/m2 in 12 Std. Regen
Do, 17.10. 2:00 0.0 l/m2 in 6 Std. -
Mi, 16.10. 20:00 0.1 l/m2 in 12 Std. -
Ortszeit Niederschlagsmenge Niederschlagsart
Fr, 18.10. 15:30 0.2 l/m2 in 1 Std. Schneeregen
Fr, 18.10. 15:20 keine Meldung -
Fr, 18.10. 15:10 keine Meldung -
Fr, 18.10. 15:00 3.2 l/m2 in 1 Std. Regenschauer
Fr, 18.10. 14:50 keine Meldung -
Fr, 18.10. 14:40 keine Meldung -
Fr, 18.10. 14:30 2.5 l/m2 in 1 Std. -
Fr, 18.10. 14:00 0.0 l/m2 in 1 Std. -
Fr, 18.10. 13:30 0.0 l/m2 in 1 Std. -
Fr, 18.10. 13:00 0.1 l/m2 in 1 Std. -
Fr, 18.10. 12:30 0.0 l/m2 in 1 Std. -
Ortszeit Stärke Spitze Richtung
km/h Bft. km/h Grad Sektor
Fr, 18.10. 14:00 18 3 36 180° S
Fr, 18.10. 8:00 0 0 22 - -
Fr, 18.10. 2:00 11 2 29 220° SW
Do, 17.10. 20:00 9 2 19 220° SW
Do, 17.10. 14:00 4 1 18 240° SW
Do, 17.10. 8:00 6 1 13 230° SW
Do, 17.10. 2:00 4 1 18 210° SW
Mi, 16.10. 20:00 6 1 28 150° SO
Ortszeit Stärke Spitze Richtung
km/h Bft. km/h Grad Sektor
Fr, 18.10. 15:30 6 1 9 160° S
Fr, 18.10. 15:20 6 1 - 160° S
Fr, 18.10. 15:10 4 1 - 190° S
Fr, 18.10. 15:00 7 2 58 240° SW
Fr, 18.10. 14:50 7 2 - 240° SW
Fr, 18.10. 14:40 11 2 - 260° W
Fr, 18.10. 14:30 24 4 57 270° W
Fr, 18.10. 14:00 18 3 36 180° S
Fr, 18.10. 13:30 14 3 32 180° S
Fr, 18.10. 13:00 15 3 28 180° S
Fr, 18.10. 12:30 13 3 26 180° S
Ortszeit Untergrenze Bedeckung Gattung
total tief tief mittel hoch
Fr, 18.10. 14:00 1800 m 7/8 2/8 - - -
Fr, 18.10. 8:00 1110 m 8/8 7/8 - - -
Fr, 18.10. 2:00 1440 m 8/8 1/8 - - -
Do, 17.10. 20:00 1500 m 7/8 7/8 - - -
Do, 17.10. 14:00 4500 m 8/8 8/8 - - -
Do, 17.10. 8:00 1320 m 8/8 8/8 - - -
Do, 17.10. 2:00 4800 m 5/8 5/8 - - -
Mi, 16.10. 20:00 - 0/8 0/8 - - -
Ortszeit Bedeckungsgrad in Achtel und Wolkenuntergrenze
Fr, 18.10. 15:30 1(180m) 7(1800m)
Fr, 18.10. 15:20 1(180m) 7(1800m)
Fr, 18.10. 15:10 1(180m) 7(1800m) 8(2100m)
Fr, 18.10. 15:00 3(1500m) 7(2100m) 8(1800m)
Fr, 18.10. 14:50 3(1500m) 7(2100m)
Fr, 18.10. 14:40 6(1500m) 7(2100m)
Fr, 18.10. 14:30 1(900m) 7(1800m) 8(2400m)
Fr, 18.10. 14:00 2(1800m) 7(5400m) 7(6600m)
Fr, 18.10. 13:30 7(1800m) 8(2700m) 8(6300m)
Fr, 18.10. 13:00 3(1800m) 6(2400m) 8(6000m)
Fr, 18.10. 12:30 8(5400m) 8(5700m)
Ortszeit Luftdruck NN (hPa) Tendenz (hPa in 3 Std.)
Fr, 18.10. 14:00 1010 - 2,0
Fr, 18.10. 8:00 1013 - 0,2
Fr, 18.10. 2:00 1014 - 0,8
Do, 17.10. 20:00 1015 + 0,9
Do, 17.10. 14:00 1015 - 0,6
Do, 17.10. 8:00 1015 + 0,3
Do, 17.10. 2:00 1015 + 0,5
Mi, 16.10. 20:00 1014 + 0,1
Ortszeit Luftdruck NN (hPa) Tendenz (hPa in 3 Std.)
Fr, 18.10. 15:30 1012 + 0,3
Fr, 18.10. 15:20 1012 keine Meldung
Fr, 18.10. 15:10 1012 keine Meldung
Fr, 18.10. 15:00 1012 - 0,2
Fr, 18.10. 14:50 1012 keine Meldung
Fr, 18.10. 14:40 1012 keine Meldung
Fr, 18.10. 14:30 1012 - 0,2
Fr, 18.10. 14:00 1010 - 2,0
Fr, 18.10. 13:30 1011 - 1,8
Fr, 18.10. 13:00 1011 - 1,3
Fr, 18.10. 12:30 1011 - 1,2
Ortszeit Schneehöhe (cm)
Fr, 18.10. 14:00 0
Fr, 18.10. 8:00 0
Fr, 18.10. 2:00 0
Do, 17.10. 20:00 0
Do, 17.10. 14:00 0
Do, 17.10. 8:00 0
Do, 17.10. 2:00 0
Mi, 16.10. 20:00 0
Ortszeit Schneehöhe (cm)
Fr, 18.10. 15:30 0
Fr, 18.10. 15:20 0
Fr, 18.10. 15:10 0
Fr, 18.10. 15:00 0
Fr, 18.10. 14:50 0
Fr, 18.10. 14:40 0
Fr, 18.10. 14:30 0
Fr, 18.10. 14:00 0
Fr, 18.10. 13:30 0
Fr, 18.10. 13:00 0
Fr, 18.10. 12:30 0
Link zu dieser Seite / Seite empfehlen

Das Wetter in ...